Masljanino, Russia
Current Conditions -  °F | °C
As of 2:00 AM on Sunday 26 Oct 2014 (Local Time) from UNBB Reporting Station
Broken Clouds Broken Clouds  
Wind Chill: 12°   Ceiling: 3300
Heat Index: 23°   Visibility: 6mi
Dew Point: 14°   Wind: 11mph
Humidity: 68%   Direction: 250°WSW
Pressure: 30.03"   Gusts: NA
Location:  54.34°N, 84.21°E
Report Text: UNBB 251900Z 25005MPS 9999 BKN033 M05/M10 Q1017 NOSIG RMKQFE740/0987 24CLRD66
Loading
Personal Weather Stations






























Interactive Weather Map
Tropical Storm Tracking
New forecast layout! Learn more

10-Day Weather Forecast

Advertisements
Track Severe Weather on mobile